Orbital elements of FENGYUN 1C DEB
| Launched | 9 May 1999 |
| Flight ended | – |
| Launch site | Taiyuan Space Center, PRC |
| Owner | People's Republic of China |
| NORAD ID | 33711 |
| Date fetched |
Epoch osculation |
Inc. [°] |
Ecc. | RA asc node [hr] |
Arg Peri. [°] |
Mean anom [°] |
Mean motion [rev/day] |
Abs. mag |
| Date fetched |
Epoch osculation |
Inc. [°] |
Ecc. | RA asc node [hr] |
Arg Peri. [°] |
Mean anom [°] |
Mean motion [rev/day] |
Abs. mag |
| 2026 May 05 17:57 | 2026 May 01 10:30:39 | 99.1695 | 0.00977 | 12.0364 | 23.1698 | 351.7287 | 14.01244 | – |
| 2026 May 04 17:57 | 2026 Apr 24 10:34:26 | 99.1682 | 0.00978 | 11.5680 | 42.4553 | 351.7287 | 14.01244 | – |
| 2026 May 03 17:57 | 2026 Apr 24 10:34:26 | 99.1682 | 0.00978 | 11.5680 | 42.4553 | 351.7287 | 14.01244 | – |
| 2026 May 02 17:57 | 2026 Apr 24 10:34:26 | 99.1682 | 0.00978 | 11.5680 | 42.4553 | 351.7287 | 14.01244 | – |
| 2026 May 01 17:56 | 2026 Apr 24 10:34:26 | 99.1682 | 0.00978 | 11.5680 | 42.4553 | 351.7287 | 14.01244 | – |
| 2026 Apr 30 17:56 | 2026 Apr 24 10:34:26 | 99.1682 | 0.00978 | 11.5680 | 42.4553 | 351.7287 | 14.01244 | – |
| 2026 Apr 29 17:57 | 2026 Apr 21 10:35:54 | 99.1698 | 0.00975 | 11.3673 | 50.6733 | 351.7287 | 14.01244 | – |
| 2026 Apr 28 17:56 | 2026 Apr 21 10:35:54 | 99.1698 | 0.00975 | 11.3673 | 50.6733 | 351.7287 | 14.01244 | – |
| 2026 Apr 27 17:58 | 2026 Apr 21 10:35:54 | 99.1698 | 0.00975 | 11.3673 | 50.6733 | 351.7287 | 14.01244 | – |
| 2026 Apr 26 17:58 | 2026 Apr 21 10:35:54 | 99.1698 | 0.00975 | 11.3673 | 50.6733 | 351.7287 | 14.01244 | – |
| 2026 Apr 25 17:58 | 2026 Apr 21 10:35:54 | 99.1698 | 0.00975 | 11.3673 | 50.6733 | 351.7287 | 14.01244 | – |
| 2026 Apr 24 17:59 | 2026 Apr 21 10:35:54 | 99.1698 | 0.00975 | 11.3673 | 50.6733 | 351.7287 | 14.01244 | – |
| 2026 Apr 23 17:57 | 2026 Apr 17 10:37:55 | 99.1703 | 0.00976 | 11.0996 | 61.6823 | 351.7287 | 14.01244 | – |
| 2026 Apr 22 17:57 | 2026 Apr 17 10:37:55 | 99.1703 | 0.00976 | 11.0996 | 61.6823 | 351.7287 | 14.01244 | – |
| 2026 Apr 21 17:57 | 2026 Apr 17 10:37:55 | 99.1703 | 0.00976 | 11.0996 | 61.6823 | 351.7287 | 14.01244 | – |
| 2026 Apr 20 17:57 | 2026 Apr 17 10:37:55 | 99.1703 | 0.00976 | 11.0996 | 61.6823 | 351.7287 | 14.01244 | – |
| 2026 Apr 19 17:58 | 2026 Apr 17 10:37:55 | 99.1703 | 0.00976 | 11.0996 | 61.6823 | 351.7287 | 14.01244 | – |
| 2026 Apr 18 17:56 | 2026 Apr 11 02:19:17 | 99.1696 | 0.00982 | 10.6745 | 78.9560 | 351.7287 | 14.01244 | – |
| 2026 Apr 16 17:57 | 2026 Apr 11 02:19:17 | 99.1696 | 0.00982 | 10.6745 | 78.9560 | 351.7287 | 14.01244 | – |
| 2026 Apr 14 17:57 | 2026 Apr 11 02:19:17 | 99.1696 | 0.00982 | 10.6745 | 78.9560 | 351.7287 | 14.01244 | – |
| 2026 Apr 13 17:57 | 2026 Apr 11 02:19:17 | 99.1696 | 0.00982 | 10.6745 | 78.9560 | 351.7287 | 14.01244 | – |
| 2026 Apr 12 17:57 | 2026 Apr 08 14:47:07 | 99.1707 | 0.00980 | 10.5085 | 85.8346 | 351.7287 | 14.01244 | – |
| 2026 Apr 11 17:57 | 2026 Apr 08 14:47:07 | 99.1707 | 0.00980 | 10.5085 | 85.8346 | 351.7287 | 14.01244 | – |
| 2026 Apr 10 17:58 | 2026 Apr 08 14:47:07 | 99.1707 | 0.00980 | 10.5085 | 85.8346 | 351.7287 | 14.01244 | – |
| 2026 Apr 09 18:01 | 2026 Apr 08 14:47:07 | 99.1707 | 0.00980 | 10.5085 | 85.8346 | 351.7287 | 14.01244 | – |
| 2026 Apr 08 17:57 | 2026 Apr 08 14:47:07 | 99.1707 | 0.00980 | 10.5085 | 85.8346 | 351.7287 | 14.01244 | – |